createdAt,value
2018-08-22T00:00:51.921Z,95342.20
2018-08-22T00:03:19.654Z,95336.27
2018-08-22T00:05:46.278Z,95338.56
2018-08-22T00:08:13.001Z,95337.59
2018-08-22T00:10:39.630Z,95340.59
2018-08-22T00:13:06.263Z,95340.03
2018-08-22T00:15:33.006Z,95345.58
2018-08-22T00:17:59.639Z,95342.73
2018-08-22T00:20:26.321Z,95338.10
2018-08-22T00:22:52.945Z,95341.22
2018-08-22T00:25:19.637Z,95335.43
2018-08-22T00:27:46.227Z,95337.93
2018-08-22T00:30:12.866Z,95333.66
2018-08-22T00:32:39.512Z,95326.69
2018-08-22T00:35:06.272Z,95336.47
2018-08-22T00:37:32.913Z,95333.68
2018-08-22T00:39:59.548Z,95337.28
2018-08-22T00:42:26.184Z,95329.55
2018-08-22T00:44:52.926Z,95340.06
2018-08-22T00:47:19.551Z,95334.11
2018-08-22T00:49:46.266Z,95338.84
2018-08-22T00:52:12.984Z,95345.95
2018-08-22T00:54:39.621Z,95347.23
2018-08-22T00:57:06.264Z,95349.28
2018-08-22T00:59:32.958Z,95349.92
2018-08-22T01:01:59.595Z,95354.50
2018-08-22T01:04:26.238Z,95354.13
2018-08-22T01:06:52.878Z,95348.72
2018-08-22T01:09:21.202Z,95346.31
2018-08-22T01:11:46.202Z,95340.41
2018-08-22T01:14:12.894Z,95342.94
2018-08-22T01:16:39.530Z,95346.62
2018-08-22T01:19:06.159Z,95345.50
2018-08-22T01:21:33.241Z,95354.23
2018-08-22T01:23:59.914Z,95355.12
2018-08-22T01:26:26.551Z,95359.97
2018-08-22T01:28:53.976Z,95360.83
2018-08-22T01:31:20.743Z,95360.08
2018-08-22T01:33:50.181Z,95355.40
2018-08-22T01:36:16.818Z,95351.98
2018-08-22T01:38:43.459Z,95347.34
2018-08-22T01:41:10.082Z,95349.23
2018-08-22T01:43:37.769Z,95347.94
2018-08-22T01:46:03.372Z,95346.75
2018-08-22T01:48:30.005Z,95343.71
2018-08-22T01:50:56.735Z,95356.02
2018-08-22T01:53:23.668Z,95356.55
2018-08-22T01:55:50.361Z,95350.36
2018-08-22T01:58:19.739Z,95354.03
2018-08-22T02:00:46.368Z,95350.86
2018-08-22T02:03:13.048Z,95354.15
2018-08-22T02:05:39.680Z,95358.26
2018-08-22T02:08:06.449Z,95357.45
2018-08-22T02:10:34.358Z,95356.63
2018-08-22T02:13:01.120Z,95356.29
2018-08-22T02:15:26.398Z,95354.14
2018-08-22T02:17:53.073Z,95354.00
2018-08-22T02:20:19.703Z,95349.45
2018-08-22T02:22:46.468Z,95356.92
2018-08-22T02:25:13.195Z,95358.48
2018-08-22T02:27:39.862Z,95360.14
2018-08-22T02:30:06.461Z,95351.28
2018-08-22T02:32:33.096Z,95355.32
2018-08-22T02:34:59.778Z,95356.55
2018-08-22T02:37:26.410Z,95352.46
2018-08-22T02:39:54.416Z,95354.91
2018-08-22T02:42:22.253Z,95363.39
2018-08-22T02:44:48.844Z,95359.92
2018-08-22T02:47:13.569Z,95361.00
2018-08-22T02:49:42.352Z,95364.16
2018-08-22T02:52:08.274Z,95359.87
2018-08-22T02:54:33.608Z,95355.36
2018-08-22T02:57:00.395Z,95354.30
2018-08-22T02:59:27.137Z,95359.35
2018-08-22T03:01:53.785Z,95370.42
2018-08-22T03:04:20.530Z,95369.28
2018-08-22T03:06:47.219Z,95373.13
2018-08-22T03:09:13.863Z,95374.72
2018-08-22T03:11:40.567Z,95374.27
2018-08-22T03:14:07.212Z,95374.44
2018-08-22T03:16:33.902Z,95373.05
2018-08-22T03:19:01.862Z,95377.53
2018-08-22T03:21:27.279Z,95376.94
2018-08-22T03:23:53.923Z,95377.83
2018-08-22T03:26:20.556Z,95376.91
2018-08-22T03:28:47.197Z,95378.09
2018-08-22T03:31:13.829Z,95380.79
2018-08-22T03:33:40.570Z,95378.92
2018-08-22T03:36:08.559Z,95383.66
2018-08-22T03:38:33.857Z,95384.79
2018-08-22T03:41:00.526Z,95387.91
2018-08-22T03:43:27.266Z,95393.14
2018-08-22T03:45:53.828Z,95391.80
2018-08-22T03:48:20.519Z,95393.27
2018-08-22T03:50:47.151Z,95395.21
2018-08-22T03:53:13.874Z,95395.97
2018-08-22T03:55:40.551Z,95382.95
2018-08-22T03:58:07.194Z,95399.61
2018-08-22T04:00:33.832Z,95404.54
2018-08-22T04:03:00.505Z,95399.77
2018-08-22T04:05:27.215Z,95407.11
2018-08-22T04:07:53.874Z,95404.41
2018-08-22T04:10:20.559Z,95410.14
2018-08-22T04:12:47.284Z,95406.55
2018-08-22T04:15:13.920Z,95413.78
2018-08-22T04:17:40.659Z,95412.64
2018-08-22T04:20:07.300Z,95423.58
2018-08-22T04:22:33.978Z,95429.04
2018-08-22T04:25:00.616Z,95430.77
2018-08-22T04:27:30.723Z,95427.34
2018-08-22T04:29:57.364Z,95431.95
2018-08-22T04:32:24.068Z,95429.28
2018-08-22T04:34:50.740Z,95434.41
2018-08-22T04:37:17.533Z,95431.35
2018-08-22T04:39:44.122Z,95428.34
2018-08-22T04:42:10.792Z,95433.88
2018-08-22T04:44:40.652Z,95432.02
2018-08-22T04:47:07.340Z,95433.20
2018-08-22T04:49:33.987Z,95435.92
2018-08-22T04:52:00.627Z,95437.56
2018-08-22T04:54:27.272Z,95441.29
2018-08-22T04:56:53.926Z,95449.39
2018-08-22T04:59:20.663Z,95443.02
2018-08-22T05:01:47.350Z,95446.16
2018-08-22T05:04:13.986Z,95450.65
2018-08-22T05:06:40.680Z,95450.46
2018-08-22T05:09:07.318Z,95449.23
2018-08-22T05:11:33.960Z,95446.13
2018-08-22T05:14:00.608Z,95439.02
2018-08-22T05:16:27.242Z,95435.98
2018-08-22T05:18:53.880Z,95433.11
2018-08-22T05:21:20.608Z,95437.03
2018-08-22T05:23:47.255Z,95435.84
2018-08-22T05:26:13.939Z,95442.69
2018-08-22T05:28:40.577Z,95440.36
2018-08-22T05:31:07.204Z,95439.08
2018-08-22T05:33:33.897Z,95437.30
2018-08-22T05:36:00.538Z,95441.66
2018-08-22T05:38:27.184Z,95443.91
2018-08-22T05:40:53.917Z,95440.22
2018-08-22T05:43:20.588Z,95443.52
2018-08-22T05:45:47.278Z,95448.09
2018-08-22T05:48:13.952Z,95447.38
2018-08-22T05:50:40.660Z,95448.03
2018-08-22T05:53:07.359Z,95455.00
2018-08-22T05:55:34.032Z,95452.90
2018-08-22T05:58:00.652Z,95448.20
2018-08-22T06:00:27.411Z,95442.27
2018-08-22T06:02:54.689Z,95447.59
2018-08-22T06:05:21.368Z,95446.58
2018-08-22T06:07:48.037Z,95452.28
2018-08-22T06:10:14.647Z,95451.47
2018-08-22T06:12:41.298Z,95452.55
2018-08-22T06:15:08.103Z,95446.12
2018-08-22T06:17:34.678Z,95451.16
2018-08-22T06:20:03.016Z,95454.82
2018-08-22T06:22:27.961Z,95458.58
2018-08-22T06:24:54.629Z,95458.63
2018-08-22T06:27:21.364Z,95460.16
2018-08-22T06:29:48.140Z,95465.55
2018-08-22T06:32:14.709Z,95456.97
2018-08-22T06:34:41.384Z,95453.86
2018-08-22T06:37:08.017Z,95460.53
2018-08-22T06:39:34.707Z,95467.26
2018-08-22T06:42:01.385Z,95461.81
2018-08-22T06:44:28.208Z,95461.28
2018-08-22T06:46:54.947Z,95465.46
2018-08-22T06:49:21.677Z,95468.31
2018-08-22T06:51:48.395Z,95461.92
2018-08-22T06:54:18.475Z,95464.59
2018-08-22T06:56:45.172Z,95471.52
2018-08-22T06:59:11.911Z,95465.23
2018-08-22T07:01:38.583Z,95478.37
2018-08-22T07:04:05.202Z,95475.53
2018-08-22T07:06:31.905Z,95470.91
2018-08-22T07:08:58.606Z,95472.52
2018-08-22T07:11:25.273Z,95466.89
2018-08-22T07:13:51.899Z,95467.94
2018-08-22T07:16:18.660Z,95468.84
2018-08-22T07:18:45.317Z,95464.69
2018-08-22T07:21:11.980Z,95464.58
2018-08-22T07:23:38.629Z,95464.75
2018-08-22T07:26:05.289Z,95466.36
2018-08-22T07:28:32.018Z,95462.93
2018-08-22T07:31:00.083Z,95463.38
2018-08-22T07:33:25.426Z,95459.39
2018-08-22T07:35:52.133Z,95461.55
2018-08-22T07:38:18.726Z,95458.16
2018-08-22T07:40:46.846Z,95456.09
2018-08-22T07:43:14.791Z,95452.34
2018-08-22T07:45:44.905Z,95456.38
2018-08-22T07:48:11.659Z,95459.16
2018-08-22T07:50:38.319Z,95459.31
2018-08-22T07:53:05.050Z,95457.34
2018-08-22T07:55:31.782Z,95456.48
2018-08-22T07:57:58.506Z,95457.17
2018-08-22T08:00:25.105Z,95456.33
2018-08-22T08:02:51.761Z,95447.02
2018-08-22T08:05:18.478Z,95445.98
2018-08-22T08:07:45.121Z,95445.98
2018-08-22T08:10:11.817Z,95450.33
2018-08-22T08:12:40.467Z,95444.08
2018-08-22T08:15:07.232Z,95445.09
2018-08-22T08:17:33.925Z,95447.84
2018-08-22T08:20:01.561Z,95446.06
2018-08-22T08:22:28.269Z,95449.99
2018-08-22T08:24:54.977Z,95434.89
2018-08-22T08:27:21.703Z,95449.88
2018-08-22T08:29:48.309Z,95439.46
2018-08-22T08:32:17.960Z,95440.09
2018-08-22T08:34:44.617Z,95439.03
2018-08-22T08:37:11.266Z,95436.91
2018-08-22T08:39:37.925Z,95444.20
2018-08-22T08:42:04.565Z,95434.42
2018-08-22T08:44:31.222Z,95441.30
2018-08-22T08:46:57.920Z,95435.09
2018-08-22T08:49:24.569Z,95436.28
2018-08-22T08:51:51.207Z,95429.69
2018-08-22T08:54:17.845Z,95415.94
2018-08-22T08:56:44.491Z,95426.56
2018-08-22T08:59:11.195Z,95424.31
2018-08-22T09:01:37.855Z,95424.06
2018-08-22T09:04:04.614Z,95424.36
2018-08-22T09:06:34.120Z,95423.95
2018-08-22T09:09:00.805Z,95416.85
2018-08-22T09:11:27.427Z,95426.42
2018-08-22T09:13:56.576Z,95420.73
2018-08-22T09:16:26.540Z,95422.13
2018-08-22T09:18:48.482Z,95420.88
2018-08-22T09:21:15.189Z,95416.17
2018-08-22T09:23:41.793Z,95414.61
2018-08-22T09:26:08.467Z,95414.61
2018-08-22T09:28:35.201Z,95409.22
2018-08-22T09:31:01.798Z,95413.92
2018-08-22T09:33:28.453Z,95401.98
2018-08-22T09:35:55.141Z,95400.13
2018-08-22T09:38:21.789Z,95392.41
2018-08-22T09:40:48.423Z,95387.45
2018-08-22T09:43:15.111Z,95380.01
2018-08-22T09:45:41.701Z,95388.94
2018-08-22T09:48:08.362Z,95382.42
2018-08-22T09:50:36.335Z,95379.83
2018-08-22T09:53:01.767Z,95382.28
2018-08-22T09:55:28.432Z,95379.36
2018-08-22T09:57:55.103Z,95382.52
2018-08-22T10:00:21.828Z,95363.16
2018-08-22T10:02:50.416Z,95377.50
2018-08-22T10:05:15.462Z,95375.02
2018-08-22T10:07:42.219Z,95373.54
2018-08-22T10:10:08.839Z,95368.38
2018-08-22T10:12:38.531Z,95367.13
2018-08-22T10:15:05.382Z,95369.77
2018-08-22T10:17:32.113Z,95368.03
2018-08-22T10:19:58.819Z,95366.86
2018-08-22T10:22:25.497Z,95359.34
2018-08-22T10:24:52.102Z,95350.95
2018-08-22T10:27:18.737Z,95354.94
2018-08-22T10:29:45.403Z,95352.58
2018-08-22T10:32:12.072Z,95356.78
2018-08-22T10:34:38.688Z,95361.16
2018-08-22T10:37:05.371Z,95353.77
2018-08-22T10:39:32.147Z,95350.60
2018-08-22T10:42:01.639Z,95349.08
2018-08-22T10:44:28.309Z,95348.53
2018-08-22T10:46:54.914Z,95353.20
2018-08-22T10:49:21.599Z,95346.69
2018-08-22T10:51:48.233Z,95337.42
2018-08-22T10:54:14.885Z,95333.56
2018-08-22T10:56:41.529Z,95339.59
2018-08-22T10:59:08.195Z,95337.39
2018-08-22T11:01:34.845Z,95323.55
2018-08-22T11:04:01.507Z,95335.47
2018-08-22T11:06:28.321Z,95321.34
2018-08-22T11:08:55.190Z,95321.19
2018-08-22T11:11:23.027Z,95336.09
2018-08-22T11:13:48.631Z,95320.27
2018-08-22T11:16:15.274Z,95327.66
2018-08-22T11:18:41.941Z,95323.91
2018-08-22T11:21:08.716Z,95315.20
2018-08-22T11:23:35.428Z,95313.49
2018-08-22T11:26:02.240Z,95317.21
2018-08-22T11:28:28.856Z,95317.24
2018-08-22T11:30:55.504Z,95309.77
2018-08-22T11:33:22.152Z,95310.44
2018-08-22T11:35:48.786Z,95315.38
2018-08-22T11:38:15.493Z,95308.98
2018-08-22T11:40:42.314Z,95305.09
2018-08-22T11:43:08.915Z,95302.06
2018-08-22T11:45:37.741Z,95304.39
2018-08-22T11:48:02.263Z,95300.06
2018-08-22T11:50:28.934Z,95300.30
2018-08-22T11:52:56.917Z,95302.53
2018-08-22T11:55:22.215Z,95304.56
2018-08-22T11:57:48.895Z,95296.98
2018-08-22T12:00:15.542Z,95298.58
2018-08-22T12:02:42.658Z,95294.11
2018-08-22T12:05:11.430Z,95294.16
2018-08-22T12:07:35.913Z,95288.64
2018-08-22T12:10:05.237Z,95288.81
2018-08-22T12:12:32.115Z,95283.91
2018-08-22T12:15:00.149Z,95280.88
2018-08-22T12:17:26.420Z,95277.56
2018-08-22T12:19:53.104Z,95273.67
2018-08-22T12:22:19.821Z,95276.14
2018-08-22T12:24:46.444Z,95276.34
2018-08-22T12:27:15.998Z,95271.80
2018-08-22T12:29:42.653Z,95263.15
2018-08-22T12:32:09.302Z,95269.58
2018-08-22T12:34:35.962Z,95266.69
2018-08-22T12:37:04.800Z,95268.87
2018-08-22T12:39:31.263Z,95263.70
2018-08-22T12:41:58.005Z,95259.70
2018-08-22T12:44:26.049Z,95251.02
2018-08-22T12:46:51.271Z,95263.72
2018-08-22T12:49:19.172Z,95258.95
2018-08-22T12:51:47.624Z,95262.68
2018-08-22T12:54:14.301Z,95257.89
2018-08-22T12:56:40.979Z,95255.02
2018-08-22T12:59:07.629Z,95258.50
2018-08-22T13:01:34.383Z,95258.05
2018-08-22T13:04:01.017Z,95257.43
2018-08-22T13:06:27.724Z,95249.46
2018-08-22T13:08:54.378Z,95248.50
2018-08-22T13:11:21.115Z,95251.25
2018-08-22T13:13:47.697Z,95244.35
2018-08-22T13:16:14.393Z,95249.89
2018-08-22T13:18:41.073Z,95238.52
2018-08-22T13:21:07.764Z,95246.61
2018-08-22T13:23:34.503Z,95248.61
2018-08-22T13:26:01.163Z,95243.98
2018-08-22T13:28:27.830Z,95244.09
2018-08-22T13:30:54.486Z,95250.22
2018-08-22T13:33:21.184Z,95240.83
2018-08-22T13:35:47.904Z,95240.88
2018-08-22T13:38:14.555Z,95246.89
2018-08-22T13:40:41.194Z,95248.94
2018-08-22T13:43:10.053Z,95242.69
2018-08-22T13:45:36.687Z,95244.94
2018-08-22T13:48:03.430Z,95242.20
2018-08-22T13:50:30.146Z,95241.19
2018-08-22T13:52:56.769Z,95242.03
2018-08-22T13:55:24.387Z,95241.34
2018-08-22T13:57:51.030Z,95243.10
2018-08-22T14:00:17.741Z,95235.59
2018-08-22T14:02:44.441Z,95233.47
2018-08-22T14:05:11.126Z,95238.77
2018-08-22T14:07:39.388Z,95241.11
2018-08-22T14:10:04.502Z,95231.86
2018-08-22T14:12:31.071Z,95230.34
2018-08-22T14:14:57.878Z,95227.64
2018-08-22T14:17:24.544Z,95230.20
2018-08-22T14:19:51.205Z,95222.36
2018-08-22T14:22:17.852Z,95219.58
2018-08-22T14:24:44.510Z,95219.11
2018-08-22T14:27:11.164Z,95220.53
2018-08-22T14:29:40.702Z,95218.59
2018-08-22T14:32:07.431Z,95211.62
2018-08-22T14:34:34.116Z,95212.39
2018-08-22T14:37:00.768Z,95214.57
2018-08-22T14:39:28.929Z,95222.16
2018-08-22T14:41:54.132Z,95225.24
2018-08-22T14:44:20.818Z,95227.03
2018-08-22T14:46:47.509Z,95223.11
2018-08-22T14:49:14.127Z,95220.25
2018-08-22T14:51:40.776Z,95219.32
2018-08-22T14:54:08.866Z,95221.77
2018-08-22T14:56:34.272Z,95224.87
2018-08-22T14:59:00.934Z,95222.58
2018-08-22T15:01:27.574Z,95217.21
2018-08-22T15:03:54.273Z,95218.31
2018-08-22T15:06:20.950Z,95226.88
2018-08-22T15:08:47.589Z,95223.52
2018-08-22T15:11:14.250Z,95211.84
2018-08-22T15:13:40.996Z,95211.94
2018-08-22T15:16:07.672Z,95214.09
2018-08-22T15:18:34.324Z,95209.64
2018-08-22T15:21:01.050Z,95208.09
2018-08-22T15:23:27.705Z,95191.09
2018-08-22T15:25:54.385Z,95210.48
2018-08-22T15:28:22.406Z,95201.60
2018-08-22T15:30:47.656Z,95207.81
2018-08-22T15:33:14.382Z,95207.67
2018-08-22T15:35:41.114Z,95212.00
2018-08-22T15:38:10.806Z,95216.56
2018-08-22T15:40:37.565Z,95213.39
2018-08-22T15:43:04.200Z,95212.63
2018-08-22T15:45:30.959Z,95214.73
2018-08-22T15:47:59.017Z,95216.88
2018-08-22T15:50:24.358Z,95214.03
2018-08-22T15:52:51.007Z,95209.53
2018-08-22T15:55:19.165Z,95218.42
2018-08-22T15:57:44.414Z,95215.05
2018-08-22T16:00:11.130Z,95212.75
2018-08-22T16:02:38.073Z,95213.59
2018-08-22T16:05:04.712Z,95217.58
2018-08-22T16:07:31.361Z,95221.79
2018-08-22T16:09:59.423Z,95219.17
2018-08-22T16:12:24.727Z,95218.65
2018-08-22T16:14:51.408Z,95215.69
2018-08-22T16:17:18.087Z,95217.38
2018-08-22T16:19:45.002Z,95223.70
2018-08-22T16:22:12.301Z,95217.48
2018-08-22T16:24:38.834Z,95219.30
2018-08-22T16:27:05.474Z,95217.77
2018-08-22T16:29:32.207Z,95223.72
2018-08-22T16:31:58.895Z,95217.95
2018-08-22T16:34:25.564Z,95226.87
2018-08-22T16:36:53.509Z,95227.12
2018-08-22T16:39:18.863Z,95226.88
2018-08-22T16:41:45.492Z,95223.30
2018-08-22T16:44:12.187Z,95230.30
2018-08-22T16:46:38.832Z,95229.88
2018-08-22T16:49:05.475Z,95228.54
2018-08-22T16:51:32.134Z,95229.11
2018-08-22T16:53:58.810Z,95228.23
2018-08-22T16:56:25.543Z,95231.25
2018-08-22T16:58:52.193Z,95237.71
2018-08-22T17:01:18.860Z,95235.23
2018-08-22T17:03:45.492Z,95242.80
2018-08-22T17:06:12.175Z,95249.19
2018-08-22T17:08:38.812Z,95252.21
2018-08-22T17:11:05.459Z,95251.56
2018-08-22T17:13:34.391Z,95257.84
2018-08-22T17:15:58.940Z,95253.06
2018-08-22T17:18:29.000Z,95256.16
2018-08-22T17:20:55.682Z,95260.95
2018-08-22T17:23:22.409Z,95258.94
2018-08-22T17:25:49.021Z,95272.80
2018-08-22T17:28:15.793Z,95272.44
2018-08-22T17:30:42.454Z,95269.63
2018-08-22T17:33:09.138Z,95273.28
2018-08-22T17:35:35.786Z,95277.14
2018-08-22T17:38:02.421Z,95276.80
2018-08-22T17:40:29.071Z,95282.94
2018-08-22T17:42:55.712Z,95281.76
2018-08-22T17:45:24.508Z,95287.72
2018-08-22T17:47:51.358Z,95292.36
2018-08-22T17:50:18.018Z,95298.58
2018-08-22T17:52:47.583Z,95299.94
2018-08-22T17:55:14.271Z,95297.92
2018-08-22T17:57:40.903Z,95309.19
2018-08-22T18:00:09.343Z,95314.16
2018-08-22T18:02:34.307Z,95312.53
2018-08-22T18:05:02.350Z,95314.06
2018-08-22T18:07:31.618Z,95310.71
2018-08-22T18:09:57.153Z,95321.63
2018-08-22T18:12:24.382Z,95320.11
2018-08-22T18:14:51.019Z,95234.22
2018-08-22T18:17:17.663Z,95326.08
2018-08-22T18:19:44.312Z,95329.20
2018-08-22T18:22:10.964Z,95329.25
2018-08-22T18:24:37.689Z,95329.31
2018-08-22T18:27:04.448Z,95329.20
2018-08-22T18:29:31.089Z,95334.73
2018-08-22T18:32:01.369Z,95329.00
2018-08-22T18:34:26.608Z,95336.14
2018-08-22T18:36:53.285Z,95342.97
2018-08-22T18:39:19.933Z,95340.62
2018-08-22T18:41:46.577Z,95341.00
2018-08-22T18:44:14.626Z,95346.21
2018-08-22T18:46:39.934Z,95340.42
2018-08-22T18:49:06.923Z,95340.22
2018-08-22T18:51:33.617Z,95339.84
2018-08-22T18:54:00.359Z,95337.81
2018-08-22T18:56:27.012Z,95340.16
2018-08-22T18:58:53.654Z,95343.02
2018-08-22T19:01:20.306Z,95346.45
2018-08-22T19:03:46.949Z,95352.88
2018-08-22T19:06:13.714Z,95354.19
2018-08-22T19:08:40.389Z,95348.31
2018-08-22T19:11:09.348Z,95351.28
2018-08-22T19:13:33.729Z,95348.86
2018-08-22T19:16:00.474Z,95349.13
2018-08-22T19:18:27.246Z,95348.86
2018-08-22T19:20:53.902Z,95353.31
2018-08-22T19:23:20.554Z,95356.17
2018-08-22T19:25:47.236Z,95357.08
2018-08-22T19:28:13.823Z,95355.42
2018-08-22T19:30:40.461Z,95351.67
2018-08-22T19:33:07.126Z,95348.88
2018-08-22T19:35:33.827Z,95348.38
2018-08-22T19:38:00.465Z,95345.80
2018-08-22T19:40:28.173Z,95350.73
2018-08-22T19:42:53.824Z,95353.48
2018-08-22T19:45:20.476Z,95357.28
2018-08-22T19:47:47.173Z,95357.30
2018-08-22T19:50:13.813Z,95350.48
2018-08-22T19:52:42.595Z,95352.41
2018-08-22T19:55:09.232Z,95345.98
2018-08-22T19:57:35.945Z,95340.77
2018-08-22T20:00:02.633Z,95341.15
2018-08-22T20:02:29.242Z,95346.42
2018-08-22T20:04:55.893Z,95340.54
2018-08-22T20:07:22.585Z,95345.05
2018-08-22T20:09:49.280Z,95347.05
2018-08-22T20:12:17.645Z,95344.14
2018-08-22T20:14:42.768Z,95341.42
2018-08-22T20:17:09.483Z,95346.68
2018-08-22T20:19:36.087Z,95343.39
2018-08-22T20:22:02.734Z,95344.03
2018-08-22T20:24:32.564Z,95336.30
2018-08-22T20:26:59.177Z,95346.63
2018-08-22T20:29:25.809Z,95338.77
2018-08-22T20:31:52.515Z,95334.70
2018-08-22T20:34:19.180Z,95334.50
2018-08-22T20:36:45.845Z,95332.98
2018-08-22T20:39:15.038Z,95329.64
2018-08-22T20:41:39.576Z,95333.74
2018-08-22T20:44:06.311Z,95336.04
2018-08-22T20:46:33.074Z,95327.92
2018-08-22T20:49:00.757Z,95335.72
2018-08-22T20:51:26.466Z,95340.03
2018-08-22T20:53:53.093Z,95341.05
2018-08-22T20:56:19.727Z,95350.96
2018-08-22T20:58:46.419Z,95337.27
2018-08-22T21:01:13.054Z,95348.92
2018-08-22T21:03:39.688Z,95350.76
2018-08-22T21:06:06.335Z,95360.23
2018-08-22T21:08:33.017Z,95360.53
2018-08-22T21:10:59.844Z,95363.00
2018-08-22T21:13:26.602Z,95361.69
2018-08-22T21:15:53.234Z,95361.95
2018-08-22T21:18:22.235Z,95364.42
2018-08-22T21:20:46.668Z,95367.22
2018-08-22T21:23:13.344Z,95371.38
2018-08-22T21:25:40.029Z,95362.77
2018-08-22T21:28:07.636Z,95358.32
2018-08-22T21:30:34.328Z,95360.36
2018-08-22T21:33:00.981Z,95364.16
2018-08-22T21:35:27.648Z,95374.48
2018-08-22T21:37:54.330Z,95364.05
2018-08-22T21:40:21.067Z,95364.80
2018-08-22T21:42:50.032Z,95370.64
2018-08-22T21:45:14.390Z,95371.00
2018-08-22T21:47:41.077Z,95370.77
2018-08-22T21:50:07.735Z,95374.63
2018-08-22T21:52:34.419Z,95379.34
2018-08-22T21:55:01.165Z,95378.61
2018-08-22T21:57:27.808Z,95385.04
2018-08-22T21:59:54.500Z,95378.33
2018-08-22T22:02:22.544Z,95379.84
2018-08-22T22:04:47.880Z,95387.37
2018-08-22T22:07:14.625Z,95385.80
2018-08-22T22:09:41.272Z,95386.70
2018-08-22T22:12:07.939Z,95387.25
2018-08-22T22:14:34.545Z,95385.59
2018-08-22T22:17:01.230Z,95383.81
2018-08-22T22:19:27.958Z,95388.64
2018-08-22T22:21:55.909Z,95398.56
2018-08-22T22:24:21.321Z,95390.94
2018-08-22T22:26:47.959Z,95387.51
2018-08-22T22:29:14.678Z,95383.06
2018-08-22T22:31:41.317Z,95392.22
2018-08-22T22:34:08.003Z,95384.39
2018-08-22T22:36:35.358Z,95384.54
2018-08-22T22:39:02.016Z,95384.39
2018-08-22T22:41:28.667Z,95384.77
2018-08-22T22:43:56.684Z,95386.05
2018-08-22T22:46:22.032Z,95380.85
2018-08-22T22:48:48.722Z,95376.22
2018-08-22T22:51:15.369Z,95384.71
2018-08-22T22:53:42.122Z,95388.14
2018-08-22T22:56:08.828Z,95389.05
2018-08-22T22:58:35.473Z,95391.45
2018-08-22T23:01:02.162Z,95387.82
2018-08-22T23:03:28.884Z,95378.55
2018-08-22T23:05:55.591Z,95388.31
2018-08-22T23:08:22.234Z,95384.39
2018-08-22T23:10:48.907Z,95378.05
2018-08-22T23:13:15.555Z,95382.38
2018-08-22T23:15:42.243Z,95381.28
2018-08-22T23:18:08.924Z,95368.25
2018-08-22T23:20:35.972Z,95382.44
2018-08-22T23:23:02.538Z,95374.59
2018-08-22T23:25:29.268Z,95379.77
2018-08-22T23:27:55.912Z,95378.13
2018-08-22T23:30:22.647Z,95382.31
2018-08-22T23:32:49.269Z,95379.79
2018-08-22T23:35:15.927Z,95379.30
2018-08-22T23:37:45.013Z,95381.59
2018-08-22T23:40:09.310Z,95378.53
2018-08-22T23:42:35.971Z,95382.26
2018-08-22T23:45:02.711Z,95379.88
2018-08-22T23:47:30.736Z,95380.51
2018-08-22T23:49:56.064Z,95379.88
2018-08-22T23:52:22.725Z,95379.92
2018-08-22T23:54:49.372Z,95376.12
2018-08-22T23:57:16.204Z,95379.42
2018-08-22T23:59:42.898Z,95376.55
